sensor_id;sensor_type;location;lat;lon;timestamp;P1;durP1;ratioP1;P2;durP2;ratioP2
47219;SDS011;32961;51.936;4.788;2023-11-22T00:02:26;19.08;;;11.18;;
47219;SDS011;32961;51.936;4.788;2023-11-22T00:04:55;16.30;;;10.48;;
47219;SDS011;32961;51.936;4.788;2023-11-22T00:07:24;18.92;;;11.07;;
47219;SDS011;32961;51.936;4.788;2023-11-22T00:09:55;17.33;;;10.95;;
47219;SDS011;32961;51.936;4.788;2023-11-22T00:12:23;16.50;;;10.77;;
47219;SDS011;32961;51.936;4.788;2023-11-22T00:14:53;15.70;;;10.07;;
47219;SDS011;32961;51.936;4.788;2023-11-22T00:17:21;15.77;;;10.20;;
47219;SDS011;32961;51.936;4.788;2023-11-22T00:19:49;14.05;;;9.95;;
47219;SDS011;32961;51.936;4.788;2023-11-22T00:22:17;13.15;;;9.38;;
47219;SDS011;32961;51.936;4.788;2023-11-22T00:24:45;13.68;;;9.65;;
47219;SDS011;32961;51.936;4.788;2023-11-22T00:27:16;15.23;;;9.30;;
47219;SDS011;32961;51.936;4.788;2023-11-22T00:29:44;16.70;;;9.55;;
47219;SDS011;32961;51.936;4.788;2023-11-22T00:32:14;16.15;;;9.10;;
47219;SDS011;32961;51.936;4.788;2023-11-22T00:34:42;14.93;;;8.77;;
47219;SDS011;32961;51.936;4.788;2023-11-22T00:37:09;14.88;;;8.73;;
47219;SDS011;32961;51.936;4.788;2023-11-22T00:39:37;17.95;;;9.13;;
47219;SDS011;32961;51.936;4.788;2023-11-22T00:42:05;13.32;;;8.50;;
47219;SDS011;32961;51.936;4.788;2023-11-22T00:44:33;16.25;;;8.48;;
47219;SDS011;32961;51.936;4.788;2023-11-22T00:47:02;12.15;;;8.32;;
47219;SDS011;32961;51.936;4.788;2023-11-22T00:49:32;13.40;;;8.68;;
47219;SDS011;32961;51.936;4.788;2023-11-22T00:52:00;11.10;;;7.85;;
47219;SDS011;32961;51.936;4.788;2023-11-22T00:54:32;15.38;;;8.48;;
47219;SDS011;32961;51.936;4.788;2023-11-22T00:57:00;14.73;;;8.63;;
47219;SDS011;32961;51.936;4.788;2023-11-22T00:59:28;12.73;;;8.43;;
47219;SDS011;32961;51.936;4.788;2023-11-22T01:01:59;15.23;;;8.45;;
47219;SDS011;32961;51.936;4.788;2023-11-22T01:04:28;13.35;;;8.23;;
47219;SDS011;32961;51.936;4.788;2023-11-22T01:07:03;13.77;;;8.27;;
47219;SDS011;32961;51.936;4.788;2023-11-22T01:09:31;15.30;;;8.68;;
47219;SDS011;32961;51.936;4.788;2023-11-22T01:12:00;13.73;;;9.00;;
47219;SDS011;32961;51.936;4.788;2023-11-22T01:14:28;14.55;;;9.13;;
47219;SDS011;32961;51.936;4.788;2023-11-22T01:16:56;13.30;;;8.68;;
47219;SDS011;32961;51.936;4.788;2023-11-22T01:19:24;12.07;;;8.68;;
47219;SDS011;32961;51.936;4.788;2023-11-22T01:21:52;13.70;;;8.00;;
47219;SDS011;32961;51.936;4.788;2023-11-22T01:24:21;12.60;;;8.73;;
47219;SDS011;32961;51.936;4.788;2023-11-22T01:26:49;15.90;;;8.63;;
47219;SDS011;32961;51.936;4.788;2023-11-22T01:29:17;12.35;;;8.77;;
47219;SDS011;32961;51.936;4.788;2023-11-22T01:31:45;12.07;;;8.25;;
47219;SDS011;32961;51.936;4.788;2023-11-22T01:34:14;13.75;;;9.63;;
47219;SDS011;32961;51.936;4.788;2023-11-22T01:36:41;17.45;;;8.95;;
47219;SDS011;32961;51.936;4.788;2023-11-22T01:39:10;16.42;;;9.25;;
47219;SDS011;32961;51.936;4.788;2023-11-22T01:41:41;13.93;;;8.98;;
47219;SDS011;32961;51.936;4.788;2023-11-22T01:44:11;13.63;;;8.95;;
47219;SDS011;32961;51.936;4.788;2023-11-22T01:46:39;15.07;;;8.77;;
47219;SDS011;32961;51.936;4.788;2023-11-22T01:49:09;12.85;;;9.27;;
47219;SDS011;32961;51.936;4.788;2023-11-22T01:51:37;13.60;;;9.00;;
47219;SDS011;32961;51.936;4.788;2023-11-22T01:54:07;13.60;;;9.48;;
47219;SDS011;32961;51.936;4.788;2023-11-22T01:56:37;20.88;;;10.50;;
47219;SDS011;32961;51.936;4.788;2023-11-22T01:59:07;13.68;;;9.82;;
47219;SDS011;32961;51.936;4.788;2023-11-22T02:01:35;17.05;;;9.70;;
47219;SDS011;32961;51.936;4.788;2023-11-22T02:04:03;15.73;;;10.20;;
47219;SDS011;32961;51.936;4.788;2023-11-22T02:06:33;22.40;;;12.50;;
47219;SDS011;32961;51.936;4.788;2023-11-22T02:09:02;15.93;;;10.23;;
47219;SDS011;32961;51.936;4.788;2023-11-22T02:11:30;17.73;;;10.95;;
47219;SDS011;32961;51.936;4.788;2023-11-22T02:13:58;18.77;;;11.18;;
47219;SDS011;32961;51.936;4.788;2023-11-22T02:16:27;16.10;;;10.38;;
47219;SDS011;32961;51.936;4.788;2023-11-22T02:18:55;18.85;;;12.05;;
47219;SDS011;32961;51.936;4.788;2023-11-22T02:21:23;13.60;;;9.80;;
47219;SDS011;32961;51.936;4.788;2023-11-22T02:23:52;18.45;;;10.90;;
47219;SDS011;32961;51.936;4.788;2023-11-22T02:26:20;16.23;;;11.10;;
47219;SDS011;32961;51.936;4.788;2023-11-22T02:28:48;17.17;;;11.02;;
47219;SDS011;32961;51.936;4.788;2023-11-22T02:31:15;19.73;;;11.40;;
47219;SDS011;32961;51.936;4.788;2023-11-22T02:33:43;14.38;;;10.50;;
47219;SDS011;32961;51.936;4.788;2023-11-22T02:36:11;16.65;;;9.80;;
47219;SDS011;32961;51.936;4.788;2023-11-22T02:38:39;17.10;;;9.75;;
47219;SDS011;32961;51.936;4.788;2023-11-22T02:41:09;17.08;;;9.77;;
47219;SDS011;32961;51.936;4.788;2023-11-22T02:43:37;16.15;;;9.32;;
47219;SDS011;32961;51.936;4.788;2023-11-22T02:46:06;17.73;;;10.25;;
47219;SDS011;32961;51.936;4.788;2023-11-22T02:48:35;16.52;;;10.30;;
47219;SDS011;32961;51.936;4.788;2023-11-22T02:51:03;17.02;;;9.85;;
47219;SDS011;32961;51.936;4.788;2023-11-22T02:53:32;13.57;;;9.40;;
47219;SDS011;32961;51.936;4.788;2023-11-22T02:56:00;15.43;;;9.82;;
47219;SDS011;32961;51.936;4.788;2023-11-22T02:58:30;13.13;;;8.70;;
47219;SDS011;32961;51.936;4.788;2023-11-22T03:00:57;12.90;;;9.02;;
47219;SDS011;32961;51.936;4.788;2023-11-22T03:03:25;14.07;;;9.48;;
47219;SDS011;32961;51.936;4.788;2023-11-22T03:05:54;12.18;;;8.90;;
47219;SDS011;32961;51.936;4.788;2023-11-22T03:08:21;14.40;;;9.40;;
47219;SDS011;32961;51.936;4.788;2023-11-22T03:10:49;12.88;;;9.88;;
47219;SDS011;32961;51.936;4.788;2023-11-22T03:13:17;12.52;;;8.90;;
47219;SDS011;32961;51.936;4.788;2023-11-22T03:15:47;15.93;;;9.90;;
47219;SDS011;32961;51.936;4.788;2023-11-22T03:18:15;14.65;;;8.57;;
47219;SDS011;32961;51.936;4.788;2023-11-22T03:20:44;12.98;;;8.43;;
47219;SDS011;32961;51.936;4.788;2023-11-22T03:23:13;18.77;;;9.82;;
47219;SDS011;32961;51.936;4.788;2023-11-22T03:25:43;15.02;;;9.23;;
47219;SDS011;32961;51.936;4.788;2023-11-22T03:28:11;13.85;;;8.65;;
47219;SDS011;32961;51.936;4.788;2023-11-22T03:30:39;11.90;;;8.90;;
47219;SDS011;32961;51.936;4.788;2023-11-22T03:33:08;12.05;;;8.98;;
47219;SDS011;32961;51.936;4.788;2023-11-22T03:35:36;14.82;;;9.20;;
47219;SDS011;32961;51.936;4.788;2023-11-22T03:38:04;14.15;;;9.05;;
47219;SDS011;32961;51.936;4.788;2023-11-22T03:40:31;12.77;;;8.65;;
47219;SDS011;32961;51.936;4.788;2023-11-22T03:42:59;17.13;;;8.90;;
47219;SDS011;32961;51.936;4.788;2023-11-22T03:45:27;14.95;;;8.75;;
47219;SDS011;32961;51.936;4.788;2023-11-22T03:47:55;12.38;;;8.60;;
47219;SDS011;32961;51.936;4.788;2023-11-22T03:50:24;17.70;;;9.20;;
47219;SDS011;32961;51.936;4.788;2023-11-22T03:52:52;14.13;;;9.60;;
47219;SDS011;32961;51.936;4.788;2023-11-22T03:55:20;14.90;;;9.27;;
47219;SDS011;32961;51.936;4.788;2023-11-22T03:57:49;11.57;;;8.77;;
47219;SDS011;32961;51.936;4.788;2023-11-22T04:00:18;13.82;;;8.90;;
47219;SDS011;32961;51.936;4.788;2023-11-22T04:02:46;13.93;;;9.35;;
47219;SDS011;32961;51.936;4.788;2023-11-22T04:05:14;13.35;;;8.82;;
47219;SDS011;32961;51.936;4.788;2023-11-22T04:07:44;12.98;;;9.55;;
47219;SDS011;32961;51.936;4.788;2023-11-22T04:10:12;11.65;;;8.52;;
47219;SDS011;32961;51.936;4.788;2023-11-22T04:12:39;14.70;;;9.93;;
47219;SDS011;32961;51.936;4.788;2023-11-22T04:15:08;17.70;;;9.57;;
47219;SDS011;32961;51.936;4.788;2023-11-22T04:17:37;17.38;;;8.90;;
47219;SDS011;32961;51.936;4.788;2023-11-22T04:20:06;14.65;;;10.05;;
47219;SDS011;32961;51.936;4.788;2023-11-22T04:22:37;14.45;;;10.13;;
47219;SDS011;32961;51.936;4.788;2023-11-22T04:25:07;14.23;;;10.40;;
47219;SDS011;32961;51.936;4.788;2023-11-22T04:27:35;17.52;;;11.15;;
47219;SDS011;32961;51.936;4.788;2023-11-22T04:30:04;16.35;;;9.75;;
47219;SDS011;32961;51.936;4.788;2023-11-22T04:32:35;15.50;;;10.68;;
47219;SDS011;32961;51.936;4.788;2023-11-22T04:35:04;14.95;;;10.82;;
47219;SDS011;32961;51.936;4.788;2023-11-22T04:37:32;18.27;;;11.35;;
47219;SDS011;32961;51.936;4.788;2023-11-22T04:40:01;17.42;;;10.98;;
47219;SDS011;32961;51.936;4.788;2023-11-22T04:42:35;18.77;;;10.68;;
47219;SDS011;32961;51.936;4.788;2023-11-22T04:45:03;15.70;;;10.48;;
47219;SDS011;32961;51.936;4.788;2023-11-22T04:47:32;24.55;;;15.68;;
47219;SDS011;32961;51.936;4.788;2023-11-22T04:50:00;19.20;;;12.48;;
47219;SDS011;32961;51.936;4.788;2023-11-22T04:52:29;22.58;;;15.23;;
47219;SDS011;32961;51.936;4.788;2023-11-22T04:54:58;22.77;;;14.13;;
47219;SDS011;32961;51.936;4.788;2023-11-22T04:57:26;24.35;;;13.63;;
47219;SDS011;32961;51.936;4.788;2023-11-22T04:59:55;18.13;;;11.05;;
47219;SDS011;32961;51.936;4.788;2023-11-22T05:02:23;25.17;;;14.13;;
47219;SDS011;32961;51.936;4.788;2023-11-22T05:04:53;20.00;;;13.35;;
47219;SDS011;32961;51.936;4.788;2023-11-22T05:07:21;19.45;;;13.15;;
47219;SDS011;32961;51.936;4.788;2023-11-22T05:09:48;19.27;;;13.60;;
47219;SDS011;32961;51.936;4.788;2023-11-22T05:12:16;18.45;;;11.52;;
47219;SDS011;32961;51.936;4.788;2023-11-22T05:14:44;17.15;;;11.80;;
47219;SDS011;32961;51.936;4.788;2023-11-22T05:17:13;22.42;;;11.43;;
47219;SDS011;32961;51.936;4.788;2023-11-22T05:19:41;17.98;;;11.68;;
47219;SDS011;32961;51.936;4.788;2023-11-22T05:22:09;18.40;;;12.18;;
47219;SDS011;32961;51.936;4.788;2023-11-22T05:24:37;29.52;;;18.67;;
47219;SDS011;32961;51.936;4.788;2023-11-22T05:27:07;22.38;;;14.75;;
47219;SDS011;32961;51.936;4.788;2023-11-22T05:29:35;20.50;;;14.20;;
47219;SDS011;32961;51.936;4.788;2023-11-22T05:32:16;17.92;;;11.85;;
47219;SDS011;32961;51.936;4.788;2023-11-22T05:34:44;20.52;;;12.20;;
47219;SDS011;32961;51.936;4.788;2023-11-22T05:37:12;18.95;;;12.25;;
47219;SDS011;32961;51.936;4.788;2023-11-22T05:39:40;23.88;;;12.40;;
47219;SDS011;32961;51.936;4.788;2023-11-22T05:42:08;22.10;;;12.63;;
47219;SDS011;32961;51.936;4.788;2023-11-22T05:44:36;16.45;;;10.93;;
47219;SDS011;32961;51.936;4.788;2023-11-22T05:47:04;17.80;;;12.32;;
47219;SDS011;32961;51.936;4.788;2023-11-22T05:49:35;17.45;;;11.73;;
47219;SDS011;32961;51.936;4.788;2023-11-22T05:52:03;21.20;;;12.45;;
47219;SDS011;32961;51.936;4.788;2023-11-22T05:54:32;21.50;;;13.63;;
47219;SDS011;32961;51.936;4.788;2023-11-22T05:56:59;18.40;;;12.52;;
47219;SDS011;32961;51.936;4.788;2023-11-22T05:59:27;19.17;;;12.73;;
47219;SDS011;32961;51.936;4.788;2023-11-22T06:01:58;22.98;;;14.70;;
47219;SDS011;32961;51.936;4.788;2023-11-22T06:04:26;18.73;;;12.30;;
47219;SDS011;32961;51.936;4.788;2023-11-22T06:06:55;20.58;;;13.00;;
47219;SDS011;32961;51.936;4.788;2023-11-22T06:09:23;26.90;;;13.40;;
47219;SDS011;32961;51.936;4.788;2023-11-22T06:11:50;19.85;;;13.27;;
47219;SDS011;32961;51.936;4.788;2023-11-22T06:14:20;22.65;;;13.93;;
47219;SDS011;32961;51.936;4.788;2023-11-22T06:16:48;26.40;;;16.92;;
47219;SDS011;32961;51.936;4.788;2023-11-22T06:19:16;25.65;;;16.02;;
47219;SDS011;32961;51.936;4.788;2023-11-22T06:21:44;25.10;;;14.75;;
47219;SDS011;32961;51.936;4.788;2023-11-22T06:24:14;25.70;;;14.63;;
47219;SDS011;32961;51.936;4.788;2023-11-22T06:26:42;27.48;;;14.85;;
47219;SDS011;32961;51.936;4.788;2023-11-22T06:29:12;25.60;;;15.27;;
47219;SDS011;32961;51.936;4.788;2023-11-22T06:31:41;23.08;;;14.32;;
47219;SDS011;32961;51.936;4.788;2023-11-22T06:34:09;28.50;;;14.93;;
47219;SDS011;32961;51.936;4.788;2023-11-22T06:36:37;26.13;;;15.15;;
47219;SDS011;32961;51.936;4.788;2023-11-22T06:39:05;22.15;;;14.73;;
47219;SDS011;32961;51.936;4.788;2023-11-22T06:41:36;23.50;;;14.80;;
47219;SDS011;32961;51.936;4.788;2023-11-22T06:44:04;21.75;;;14.35;;
47219;SDS011;32961;51.936;4.788;2023-11-22T06:46:33;22.15;;;14.43;;
47219;SDS011;32961;51.936;4.788;2023-11-22T06:49:00;27.90;;;15.27;;
47219;SDS011;32961;51.936;4.788;2023-11-22T06:51:28;20.67;;;14.07;;
47219;SDS011;32961;51.936;4.788;2023-11-22T06:53:56;28.15;;;14.80;;
47219;SDS011;32961;51.936;4.788;2023-11-22T06:56:27;24.92;;;15.48;;
47219;SDS011;32961;51.936;4.788;2023-11-22T06:58:56;31.20;;;15.57;;
47219;SDS011;32961;51.936;4.788;2023-11-22T07:01:24;28.02;;;13.93;;
47219;SDS011;32961;51.936;4.788;2023-11-22T07:03:52;27.52;;;15.20;;
47219;SDS011;32961;51.936;4.788;2023-11-22T07:06:21;23.55;;;15.02;;
47219;SDS011;32961;51.936;4.788;2023-11-22T07:08:49;22.92;;;13.57;;
47219;SDS011;32961;51.936;4.788;2023-11-22T07:11:23;20.63;;;12.60;;
47219;SDS011;32961;51.936;4.788;2023-11-22T07:13:53;22.35;;;13.43;;
47219;SDS011;32961;51.936;4.788;2023-11-22T07:16:23;30.90;;;14.15;;
47219;SDS011;32961;51.936;4.788;2023-11-22T07:18:51;20.45;;;13.35;;
47219;SDS011;32961;51.936;4.788;2023-11-22T07:21:20;20.63;;;12.70;;
47219;SDS011;32961;51.936;4.788;2023-11-22T07:23:48;27.80;;;13.82;;
47219;SDS011;32961;51.936;4.788;2023-11-22T07:26:19;20.88;;;14.00;;
47219;SDS011;32961;51.936;4.788;2023-11-22T07:28:47;24.90;;;14.80;;
47219;SDS011;32961;51.936;4.788;2023-11-22T07:31:15;21.65;;;14.20;;
47219;SDS011;32961;51.936;4.788;2023-11-22T07:33:44;20.77;;;12.70;;
47219;SDS011;32961;51.936;4.788;2023-11-22T07:36:13;19.75;;;13.88;;
47219;SDS011;32961;51.936;4.788;2023-11-22T07:38:42;19.48;;;13.93;;
47219;SDS011;32961;51.936;4.788;2023-11-22T07:41:10;23.80;;;13.75;;
47219;SDS011;32961;51.936;4.788;2023-11-22T07:43:38;21.08;;;13.23;;
47219;SDS011;32961;51.936;4.788;2023-11-22T07:46:06;21.92;;;13.98;;
47219;SDS011;32961;51.936;4.788;2023-11-22T07:48:42;22.20;;;13.60;;
47219;SDS011;32961;51.936;4.788;2023-11-22T07:51:16;32.00;;;20.58;;
47219;SDS011;32961;51.936;4.788;2023-11-22T07:53:44;33.28;;;18.75;;
47219;SDS011;32961;51.936;4.788;2023-11-22T07:56:12;24.85;;;15.68;;
47219;SDS011;32961;51.936;4.788;2023-11-22T07:58:42;22.98;;;13.95;;
47219;SDS011;32961;51.936;4.788;2023-11-22T08:01:10;19.27;;;13.23;;
47219;SDS011;32961;51.936;4.788;2023-11-22T08:03:40;21.83;;;13.82;;
47219;SDS011;32961;51.936;4.788;2023-11-22T08:06:14;21.33;;;13.25;;
47219;SDS011;32961;51.936;4.788;2023-11-22T08:08:43;21.75;;;13.30;;
47219;SDS011;32961;51.936;4.788;2023-11-22T08:11:14;22.70;;;14.40;;
47219;SDS011;32961;51.936;4.788;2023-11-22T08:13:42;21.92;;;14.02;;
47219;SDS011;32961;51.936;4.788;2023-11-22T08:16:11;24.48;;;15.50;;
47219;SDS011;32961;51.936;4.788;2023-11-22T08:18:40;28.42;;;15.23;;
47219;SDS011;32961;51.936;4.788;2023-11-22T08:21:12;24.88;;;14.40;;
47219;SDS011;32961;51.936;4.788;2023-11-22T08:23:41;24.98;;;15.00;;
47219;SDS011;32961;51.936;4.788;2023-11-22T08:26:09;23.27;;;15.95;;
47219;SDS011;32961;51.936;4.788;2023-11-22T08:28:38;18.67;;;13.32;;
47219;SDS011;32961;51.936;4.788;2023-11-22T08:31:06;21.83;;;14.50;;
47219;SDS011;32961;51.936;4.788;2023-11-22T08:33:36;25.08;;;14.70;;
47219;SDS011;32961;51.936;4.788;2023-11-22T08:36:07;20.65;;;14.82;;
47219;SDS011;32961;51.936;4.788;2023-11-22T08:38:36;24.10;;;15.02;;
47219;SDS011;32961;51.936;4.788;2023-11-22T08:41:08;23.75;;;14.95;;
47219;SDS011;32961;51.936;4.788;2023-11-22T08:43:39;24.33;;;15.95;;
47219;SDS011;32961;51.936;4.788;2023-11-22T08:46:08;26.02;;;15.60;;
47219;SDS011;32961;51.936;4.788;2023-11-22T08:48:40;25.23;;;15.52;;
47219;SDS011;32961;51.936;4.788;2023-11-22T08:51:09;28.73;;;16.05;;
47219;SDS011;32961;51.936;4.788;2023-11-22T08:53:40;28.85;;;17.27;;
47219;SDS011;32961;51.936;4.788;2023-11-22T08:56:12;26.40;;;15.30;;
47219;SDS011;32961;51.936;4.788;2023-11-22T08:58:42;31.83;;;21.27;;
47219;SDS011;32961;51.936;4.788;2023-11-22T09:01:10;36.78;;;21.83;;
47219;SDS011;32961;51.936;4.788;2023-11-22T09:03:41;24.60;;;16.55;;
47219;SDS011;32961;51.936;4.788;2023-11-22T09:06:10;25.58;;;17.08;;
47219;SDS011;32961;51.936;4.788;2023-11-22T09:08:37;28.27;;;16.35;;
47219;SDS011;32961;51.936;4.788;2023-11-22T09:11:06;26.30;;;16.52;;
47219;SDS011;32961;51.936;4.788;2023-11-22T09:13:35;24.83;;;16.65;;
47219;SDS011;32961;51.936;4.788;2023-11-22T09:16:03;31.10;;;17.48;;
47219;SDS011;32961;51.936;4.788;2023-11-22T09:18:32;27.73;;;16.58;;
47219;SDS011;32961;51.936;4.788;2023-11-22T09:21:00;26.40;;;16.65;;
47219;SDS011;32961;51.936;4.788;2023-11-22T09:23:32;28.17;;;15.93;;
47219;SDS011;32961;51.936;4.788;2023-11-22T09:26:00;25.67;;;17.08;;
47219;SDS011;32961;51.936;4.788;2023-11-22T09:28:28;22.83;;;15.30;;
47219;SDS011;32961;51.936;4.788;2023-11-22T09:31:03;28.00;;;16.30;;
47219;SDS011;32961;51.936;4.788;2023-11-22T09:33:47;36.45;;;22.67;;
47219;SDS011;32961;51.936;4.788;2023-11-22T09:36:15;31.17;;;19.20;;
47219;SDS011;32961;51.936;4.788;2023-11-22T09:38:44;26.65;;;16.33;;
47219;SDS011;32961;51.936;4.788;2023-11-22T09:41:13;28.42;;;16.95;;
47219;SDS011;32961;51.936;4.788;2023-11-22T09:43:44;23.63;;;17.00;;
47219;SDS011;32961;51.936;4.788;2023-11-22T09:46:17;27.60;;;16.20;;
47219;SDS011;32961;51.936;4.788;2023-11-22T09:48:46;27.02;;;17.00;;
47219;SDS011;32961;51.936;4.788;2023-11-22T09:51:20;25.65;;;16.33;;
47219;SDS011;32961;51.936;4.788;2023-11-22T09:53:52;25.67;;;16.77;;
47219;SDS011;32961;51.936;4.788;2023-11-22T09:56:25;25.38;;;16.58;;
47219;SDS011;32961;51.936;4.788;2023-11-22T09:58:56;28.77;;;17.30;;
47219;SDS011;32961;51.936;4.788;2023-11-22T10:01:29;28.10;;;16.85;;
47219;SDS011;32961;51.936;4.788;2023-11-22T10:04:00;25.13;;;16.70;;
47219;SDS011;32961;51.936;4.788;2023-11-22T10:06:31;28.35;;;17.70;;
47219;SDS011;32961;51.936;4.788;2023-11-22T10:09:01;25.13;;;16.15;;
47219;SDS011;32961;51.936;4.788;2023-11-22T10:11:32;32.80;;;17.23;;
47219;SDS011;32961;51.936;4.788;2023-11-22T10:14:02;26.65;;;17.40;;
47219;SDS011;32961;51.936;4.788;2023-11-22T10:16:37;24.73;;;16.98;;
47219;SDS011;32961;51.936;4.788;2023-11-22T10:19:07;26.77;;;17.35;;
47219;SDS011;32961;51.936;4.788;2023-11-22T10:21:40;35.45;;;18.55;;
47219;SDS011;32961;51.936;4.788;2023-11-22T10:24:08;37.42;;;24.13;;
47219;SDS011;32961;51.936;4.788;2023-11-22T10:26:43;29.15;;;19.73;;
47219;SDS011;32961;51.936;4.788;2023-11-22T10:29:11;28.15;;;18.02;;
47219;SDS011;32961;51.936;4.788;2023-11-22T10:31:41;27.75;;;17.77;;
47219;SDS011;32961;51.936;4.788;2023-11-22T10:34:10;23.70;;;16.73;;
47219;SDS011;32961;51.936;4.788;2023-11-22T10:36:38;22.88;;;17.73;;
47219;SDS011;32961;51.936;4.788;2023-11-22T10:39:07;27.13;;;17.65;;
47219;SDS011;32961;51.936;4.788;2023-11-22T10:41:36;24.50;;;16.90;;
47219;SDS011;32961;51.936;4.788;2023-11-22T10:44:05;24.00;;;17.52;;
47219;SDS011;32961;51.936;4.788;2023-11-22T10:46:34;26.20;;;17.15;;
47219;SDS011;32961;51.936;4.788;2023-11-22T10:49:03;29.50;;;17.77;;
47219;SDS011;32961;51.936;4.788;2023-11-22T10:51:34;28.60;;;18.85;;
47219;SDS011;32961;51.936;4.788;2023-11-22T10:54:07;27.70;;;17.70;;
47219;SDS011;32961;51.936;4.788;2023-11-22T10:56:36;28.00;;;18.00;;
47219;SDS011;32961;51.936;4.788;2023-11-22T10:59:09;24.77;;;16.60;;
47219;SDS011;32961;51.936;4.788;2023-11-22T11:01:43;27.60;;;17.25;;
47219;SDS011;32961;51.936;4.788;2023-11-22T11:04:19;23.38;;;16.63;;
47219;SDS011;32961;51.936;4.788;2023-11-22T11:06:51;24.23;;;17.77;;
47219;SDS011;32961;51.936;4.788;2023-11-22T11:11:59;25.27;;;16.77;;
47219;SDS011;32961;51.936;4.788;2023-11-22T11:14:51;23.42;;;16.35;;
47219;SDS011;32961;51.936;4.788;2023-11-22T11:17:19;29.95;;;17.60;;
47219;SDS011;32961;51.936;4.788;2023-11-22T11:19:52;25.00;;;17.05;;
47219;SDS011;32961;51.936;4.788;2023-11-22T11:22:20;25.13;;;16.48;;
47219;SDS011;32961;51.936;4.788;2023-11-22T11:24:48;23.27;;;16.17;;
47219;SDS011;32961;51.936;4.788;2023-11-22T11:27:29;25.50;;;16.92;;
47219;SDS011;32961;51.936;4.788;2023-11-22T11:33:12;22.05;;;14.43;;
47219;SDS011;32961;51.936;4.788;2023-11-22T11:35:46;19.27;;;15.20;;
47219;SDS011;32961;51.936;4.788;2023-11-22T11:38:15;22.95;;;15.50;;
47219;SDS011;32961;51.936;4.788;2023-11-22T11:40:47;22.33;;;15.75;;
47219;SDS011;32961;51.936;4.788;2023-11-22T11:43:20;24.55;;;15.88;;
47219;SDS011;32961;51.936;4.788;2023-11-22T11:45:50;24.15;;;15.88;;
47219;SDS011;32961;51.936;4.788;2023-11-22T11:48:20;25.25;;;17.42;;
47219;SDS011;32961;51.936;4.788;2023-11-22T11:50:52;25.17;;;15.65;;
47219;SDS011;32961;51.936;4.788;2023-11-22T11:53:21;19.05;;;14.45;;
47219;SDS011;32961;51.936;4.788;2023-11-22T11:55:50;21.13;;;14.77;;
47219;SDS011;32961;51.936;4.788;2023-11-22T11:58:20;25.10;;;16.13;;
47219;SDS011;32961;51.936;4.788;2023-11-22T12:00:50;24.42;;;16.00;;
47219;SDS011;32961;51.936;4.788;2023-11-22T12:03:19;20.60;;;15.68;;
47219;SDS011;32961;51.936;4.788;2023-11-22T12:05:49;20.58;;;15.40;;
47219;SDS011;32961;51.936;4.788;2023-11-22T12:08:17;22.67;;;14.82;;
47219;SDS011;32961;51.936;4.788;2023-11-22T12:10:46;23.13;;;14.57;;
47219;SDS011;32961;51.936;4.788;2023-11-22T12:13:16;26.55;;;16.55;;
47219;SDS011;32961;51.936;4.788;2023-11-22T12:15:46;20.77;;;15.55;;
47219;SDS011;32961;51.936;4.788;2023-11-22T12:18:14;25.25;;;15.55;;
47219;SDS011;32961;51.936;4.788;2023-11-22T12:20:55;23.13;;;16.13;;
47219;SDS011;32961;51.936;4.788;2023-11-22T12:23:24;22.73;;;15.20;;
47219;SDS011;32961;51.936;4.788;2023-11-22T12:25:54;19.60;;;13.80;;
47219;SDS011;32961;51.936;4.788;2023-11-22T12:28:23;21.48;;;14.48;;
47219;SDS011;32961;51.936;4.788;2023-11-22T12:30:53;21.38;;;14.80;;
47219;SDS011;32961;51.936;4.788;2023-11-22T12:33:21;25.42;;;16.52;;
47219;SDS011;32961;51.936;4.788;2023-11-22T12:35:49;21.02;;;14.77;;
47219;SDS011;32961;51.936;4.788;2023-11-22T12:38:18;19.63;;;15.20;;
47219;SDS011;32961;51.936;4.788;2023-11-22T12:40:47;18.63;;;13.65;;
47219;SDS011;32961;51.936;4.788;2023-11-22T12:43:15;19.60;;;14.25;;
47219;SDS011;32961;51.936;4.788;2023-11-22T12:45:43;25.52;;;14.63;;
47219;SDS011;32961;51.936;4.788;2023-11-22T12:48:21;19.13;;;13.82;;
47219;SDS011;32961;51.936;4.788;2023-11-22T12:50:51;20.20;;;14.13;;
47219;SDS011;32961;51.936;4.788;2023-11-22T12:53:22;22.00;;;15.98;;
47219;SDS011;32961;51.936;4.788;2023-11-22T12:55:54;22.38;;;16.23;;
47219;SDS011;32961;51.936;4.788;2023-11-22T12:58:23;24.08;;;14.98;;
47219;SDS011;32961;51.936;4.788;2023-11-22T13:00:54;21.77;;;15.95;;
47219;SDS011;32961;51.936;4.788;2023-11-22T13:03:29;22.23;;;15.95;;
47219;SDS011;32961;51.936;4.788;2023-11-22T13:06:00;24.77;;;16.05;;
47219;SDS011;32961;51.936;4.788;2023-11-22T13:08:30;22.67;;;15.90;;
47219;SDS011;32961;51.936;4.788;2023-11-22T13:10:59;23.45;;;17.08;;
47219;SDS011;32961;51.936;4.788;2023-11-22T13:13:27;29.27;;;21.55;;
47219;SDS011;32961;51.936;4.788;2023-11-22T13:15:57;24.23;;;16.92;;
47219;SDS011;32961;51.936;4.788;2023-11-22T13:18:26;30.27;;;17.35;;
47219;SDS011;32961;51.936;4.788;2023-11-22T13:20:55;24.23;;;17.45;;
47219;SDS011;32961;51.936;4.788;2023-11-22T13:23:26;22.40;;;16.98;;
47219;SDS011;32961;51.936;4.788;2023-11-22T13:25:58;28.67;;;18.92;;
47219;SDS011;32961;51.936;4.788;2023-11-22T13:28:32;25.27;;;18.33;;
47219;SDS011;32961;51.936;4.788;2023-11-22T13:31:05;32.40;;;18.27;;
47219;SDS011;32961;51.936;4.788;2023-11-22T13:33:38;30.15;;;18.73;;
47219;SDS011;32961;51.936;4.788;2023-11-22T13:38:40;21.58;;;15.63;;
47219;SDS011;32961;51.936;4.788;2023-11-22T13:41:09;23.88;;;18.25;;
47219;SDS011;32961;51.936;4.788;2023-11-22T13:43:37;23.88;;;16.98;;
47219;SDS011;32961;51.936;4.788;2023-11-22T13:46:07;23.88;;;18.02;;
47219;SDS011;32961;51.936;4.788;2023-11-22T13:48:36;25.98;;;17.10;;
47219;SDS011;32961;51.936;4.788;2023-11-22T13:51:06;24.27;;;17.48;;
47219;SDS011;32961;51.936;4.788;2023-11-22T13:53:37;30.63;;;18.08;;
47219;SDS011;32961;51.936;4.788;2023-11-22T13:56:11;23.57;;;16.83;;
47219;SDS011;32961;51.936;4.788;2023-11-22T13:58:41;27.30;;;18.63;;
47219;SDS011;32961;51.936;4.788;2023-11-22T14:01:09;24.75;;;17.05;;
47219;SDS011;32961;51.936;4.788;2023-11-22T14:03:42;27.70;;;18.35;;
47219;SDS011;32961;51.936;4.788;2023-11-22T14:06:11;28.70;;;19.40;;
47219;SDS011;32961;51.936;4.788;2023-11-22T14:08:40;31.80;;;19.95;;
47219;SDS011;32961;51.936;4.788;2023-11-22T14:11:12;34.30;;;20.88;;
47219;SDS011;32961;51.936;4.788;2023-11-22T14:13:40;34.85;;;21.63;;
47219;SDS011;32961;51.936;4.788;2023-11-22T14:16:09;36.08;;;21.10;;
47219;SDS011;32961;51.936;4.788;2023-11-22T14:18:37;31.50;;;20.70;;
47219;SDS011;32961;51.936;4.788;2023-11-22T14:21:05;33.25;;;20.65;;
47219;SDS011;32961;51.936;4.788;2023-11-22T14:23:33;33.30;;;19.67;;
47219;SDS011;32961;51.936;4.788;2023-11-22T14:26:01;34.13;;;20.92;;
47219;SDS011;32961;51.936;4.788;2023-11-22T14:28:34;35.65;;;20.88;;
47219;SDS011;32961;51.936;4.788;2023-11-22T14:31:05;36.33;;;20.88;;
47219;SDS011;32961;51.936;4.788;2023-11-22T14:33:37;33.58;;;21.33;;
47219;SDS011;32961;51.936;4.788;2023-11-22T14:36:07;36.13;;;22.42;;
47219;SDS011;32961;51.936;4.788;2023-11-22T14:38:35;36.67;;;23.15;;
47219;SDS011;32961;51.936;4.788;2023-11-22T14:41:03;32.47;;;21.88;;
47219;SDS011;32961;51.936;4.788;2023-11-22T14:43:37;34.90;;;23.20;;
47219;SDS011;32961;51.936;4.788;2023-11-22T14:46:08;38.88;;;24.98;;